sensor_id;sensor_type;location;lat;lon;timestamp;P1;durP1;ratioP1;P2;durP2;ratioP2
40154;SDS011;25875;48.202;16.334;2023-03-03T00:01:55;27.02;;;18.55;;
40154;SDS011;25875;48.202;16.334;2023-03-03T00:04:22;22.85;;;16.50;;
40154;SDS011;25875;48.202;16.334;2023-03-03T00:06:49;25.88;;;17.33;;
40154;SDS011;25875;48.202;16.334;2023-03-03T00:09:17;21.45;;;16.48;;
40154;SDS011;25875;48.202;16.334;2023-03-03T00:11:44;24.70;;;17.45;;
40154;SDS011;25875;48.202;16.334;2023-03-03T00:14:16;25.40;;;17.55;;
40154;SDS011;25875;48.202;16.334;2023-03-03T00:16:47;20.60;;;16.13;;
40154;SDS011;25875;48.202;16.334;2023-03-03T00:19:15;23.90;;;17.15;;
40154;SDS011;25875;48.202;16.334;2023-03-03T00:21:45;24.38;;;17.88;;
40154;SDS011;25875;48.202;16.334;2023-03-03T00:24:14;23.67;;;16.05;;
40154;SDS011;25875;48.202;16.334;2023-03-03T00:26:45;22.83;;;16.48;;
40154;SDS011;25875;48.202;16.334;2023-03-03T00:29:25;24.05;;;16.83;;
40154;SDS011;25875;48.202;16.334;2023-03-03T00:31:54;24.85;;;16.00;;
40154;SDS011;25875;48.202;16.334;2023-03-03T00:34:37;24.23;;;17.10;;
40154;SDS011;25875;48.202;16.334;2023-03-03T00:37:10;21.00;;;16.00;;
40154;SDS011;25875;48.202;16.334;2023-03-03T00:42:51;23.23;;;16.65;;
40154;SDS011;25875;48.202;16.334;2023-03-03T00:45:24;20.20;;;16.00;;
40154;SDS011;25875;48.202;16.334;2023-03-03T00:47:53;24.42;;;16.95;;
40154;SDS011;25875;48.202;16.334;2023-03-03T00:50:25;21.98;;;16.75;;
40154;SDS011;25875;48.202;16.334;2023-03-03T00:52:59;21.00;;;17.13;;
40154;SDS011;25875;48.202;16.334;2023-03-03T00:55:29;22.70;;;16.92;;
40154;SDS011;25875;48.202;16.334;2023-03-03T00:57:57;23.80;;;16.85;;
40154;SDS011;25875;48.202;16.334;2023-03-03T01:00:25;26.70;;;17.55;;
40154;SDS011;25875;48.202;16.334;2023-03-03T01:02:51;24.67;;;15.85;;
40154;SDS011;25875;48.202;16.334;2023-03-03T01:05:18;23.48;;;17.13;;
40154;SDS011;25875;48.202;16.334;2023-03-03T01:07:45;23.20;;;16.10;;
40154;SDS011;25875;48.202;16.334;2023-03-03T01:10:12;23.77;;;17.83;;
40154;SDS011;25875;48.202;16.334;2023-03-03T01:12:41;22.83;;;15.30;;
40154;SDS011;25875;48.202;16.334;2023-03-03T01:15:08;25.10;;;17.27;;
40154;SDS011;25875;48.202;16.334;2023-03-03T01:17:36;23.45;;;15.98;;
40154;SDS011;25875;48.202;16.334;2023-03-03T01:20:04;22.30;;;16.42;;
40154;SDS011;25875;48.202;16.334;2023-03-03T01:22:31;24.35;;;16.75;;
40154;SDS011;25875;48.202;16.334;2023-03-03T01:24:59;22.85;;;16.55;;
40154;SDS011;25875;48.202;16.334;2023-03-03T01:27:27;22.98;;;16.42;;
40154;SDS011;25875;48.202;16.334;2023-03-03T01:29:56;19.20;;;14.90;;
40154;SDS011;25875;48.202;16.334;2023-03-03T01:32:23;26.92;;;17.38;;
40154;SDS011;25875;48.202;16.334;2023-03-03T01:34:51;23.38;;;16.25;;
40154;SDS011;25875;48.202;16.334;2023-03-03T01:37:18;24.52;;;15.82;;
40154;SDS011;25875;48.202;16.334;2023-03-03T01:39:46;23.85;;;15.95;;
40154;SDS011;25875;48.202;16.334;2023-03-03T01:42:14;23.05;;;15.48;;
40154;SDS011;25875;48.202;16.334;2023-03-03T01:44:41;21.63;;;16.33;;
40154;SDS011;25875;48.202;16.334;2023-03-03T01:47:09;20.88;;;16.42;;
40154;SDS011;25875;48.202;16.334;2023-03-03T01:49:38;20.33;;;14.70;;
40154;SDS011;25875;48.202;16.334;2023-03-03T01:52:09;21.83;;;15.30;;
40154;SDS011;25875;48.202;16.334;2023-03-03T01:54:40;22.75;;;16.13;;
40154;SDS011;25875;48.202;16.334;2023-03-03T01:57:10;21.10;;;15.23;;
40154;SDS011;25875;48.202;16.334;2023-03-03T01:59:42;22.75;;;16.63;;
40154;SDS011;25875;48.202;16.334;2023-03-03T02:02:14;20.58;;;15.85;;
40154;SDS011;25875;48.202;16.334;2023-03-03T02:04:42;25.67;;;17.70;;
40154;SDS011;25875;48.202;16.334;2023-03-03T02:07:09;20.33;;;16.23;;
40154;SDS011;25875;48.202;16.334;2023-03-03T02:09:40;19.60;;;14.70;;
40154;SDS011;25875;48.202;16.334;2023-03-03T02:12:14;23.25;;;16.60;;
40154;SDS011;25875;48.202;16.334;2023-03-03T02:14:43;22.40;;;16.35;;
40154;SDS011;25875;48.202;16.334;2023-03-03T02:17:10;27.42;;;17.05;;
40154;SDS011;25875;48.202;16.334;2023-03-03T02:19:41;24.00;;;16.45;;
40154;SDS011;25875;48.202;16.334;2023-03-03T02:22:14;20.65;;;15.75;;
40154;SDS011;25875;48.202;16.334;2023-03-03T02:24:46;21.05;;;15.38;;
40154;SDS011;25875;48.202;16.334;2023-03-03T02:27:17;20.67;;;15.23;;
40154;SDS011;25875;48.202;16.334;2023-03-03T02:29:44;24.75;;;16.33;;
40154;SDS011;25875;48.202;16.334;2023-03-03T02:32:11;22.42;;;15.57;;
40154;SDS011;25875;48.202;16.334;2023-03-03T02:34:45;21.65;;;15.70;;
40154;SDS011;25875;48.202;16.334;2023-03-03T02:37:13;21.83;;;15.63;;
40154;SDS011;25875;48.202;16.334;2023-03-03T02:39:40;21.85;;;15.23;;
40154;SDS011;25875;48.202;16.334;2023-03-03T02:42:07;20.80;;;16.15;;
40154;SDS011;25875;48.202;16.334;2023-03-03T02:44:40;21.67;;;15.20;;
40154;SDS011;25875;48.202;16.334;2023-03-03T02:47:07;21.83;;;15.68;;
40154;SDS011;25875;48.202;16.334;2023-03-03T02:49:34;19.58;;;14.93;;
40154;SDS011;25875;48.202;16.334;2023-03-03T02:52:04;23.30;;;14.52;;
40154;SDS011;25875;48.202;16.334;2023-03-03T02:54:33;17.15;;;14.15;;
40154;SDS011;25875;48.202;16.334;2023-03-03T02:57:01;18.92;;;14.00;;
40154;SDS011;25875;48.202;16.334;2023-03-03T02:59:28;20.25;;;15.88;;
40154;SDS011;25875;48.202;16.334;2023-03-03T03:01:57;19.42;;;14.20;;
40154;SDS011;25875;48.202;16.334;2023-03-03T03:04:25;21.58;;;15.57;;
40154;SDS011;25875;48.202;16.334;2023-03-03T03:06:53;20.77;;;15.55;;
40154;SDS011;25875;48.202;16.334;2023-03-03T03:09:21;22.05;;;15.95;;
40154;SDS011;25875;48.202;16.334;2023-03-03T03:11:49;19.42;;;14.98;;
40154;SDS011;25875;48.202;16.334;2023-03-03T03:14:16;23.40;;;17.80;;
40154;SDS011;25875;48.202;16.334;2023-03-03T03:16:43;20.00;;;15.93;;
40154;SDS011;25875;48.202;16.334;2023-03-03T03:19:11;22.50;;;16.20;;
40154;SDS011;25875;48.202;16.334;2023-03-03T03:21:38;21.80;;;16.13;;
40154;SDS011;25875;48.202;16.334;2023-03-03T03:24:05;20.55;;;15.27;;
40154;SDS011;25875;48.202;16.334;2023-03-03T03:26:32;21.05;;;15.48;;
40154;SDS011;25875;48.202;16.334;2023-03-03T03:28:59;24.00;;;14.40;;
40154;SDS011;25875;48.202;16.334;2023-03-03T03:31:25;20.25;;;15.48;;
40154;SDS011;25875;48.202;16.334;2023-03-03T03:33:52;20.88;;;14.82;;
40154;SDS011;25875;48.202;16.334;2023-03-03T03:36:20;22.02;;;14.77;;
40154;SDS011;25875;48.202;16.334;2023-03-03T03:38:47;20.30;;;14.93;;
40154;SDS011;25875;48.202;16.334;2023-03-03T03:41:14;18.40;;;14.88;;
40154;SDS011;25875;48.202;16.334;2023-03-03T03:43:41;23.33;;;15.82;;
40154;SDS011;25875;48.202;16.334;2023-03-03T03:46:08;19.13;;;15.27;;
40154;SDS011;25875;48.202;16.334;2023-03-03T03:48:35;19.98;;;13.43;;
40154;SDS011;25875;48.202;16.334;2023-03-03T03:51:02;21.65;;;16.92;;
40154;SDS011;25875;48.202;16.334;2023-03-03T03:53:31;21.35;;;15.90;;
40154;SDS011;25875;48.202;16.334;2023-03-03T03:55:58;20.13;;;14.13;;
40154;SDS011;25875;48.202;16.334;2023-03-03T03:58:24;18.88;;;14.25;;
40154;SDS011;25875;48.202;16.334;2023-03-03T04:00:51;17.45;;;13.10;;
40154;SDS011;25875;48.202;16.334;2023-03-03T04:03:18;17.23;;;12.90;;
40154;SDS011;25875;48.202;16.334;2023-03-03T04:05:45;15.05;;;12.05;;
40154;SDS011;25875;48.202;16.334;2023-03-03T04:08:12;19.60;;;13.25;;
40154;SDS011;25875;48.202;16.334;2023-03-03T04:10:40;18.92;;;13.07;;
40154;SDS011;25875;48.202;16.334;2023-03-03T04:13:07;18.70;;;14.02;;
40154;SDS011;25875;48.202;16.334;2023-03-03T04:15:34;18.73;;;13.10;;
40154;SDS011;25875;48.202;16.334;2023-03-03T04:18:01;20.67;;;14.02;;
40154;SDS011;25875;48.202;16.334;2023-03-03T04:20:29;19.77;;;14.25;;
40154;SDS011;25875;48.202;16.334;2023-03-03T04:22:56;17.65;;;12.93;;
40154;SDS011;25875;48.202;16.334;2023-03-03T04:25:23;17.58;;;14.00;;
40154;SDS011;25875;48.202;16.334;2023-03-03T04:27:54;18.08;;;14.30;;
40154;SDS011;25875;48.202;16.334;2023-03-03T04:30:21;20.38;;;14.63;;
40154;SDS011;25875;48.202;16.334;2023-03-03T04:32:47;17.30;;;13.80;;
40154;SDS011;25875;48.202;16.334;2023-03-03T04:35:15;20.70;;;13.63;;
40154;SDS011;25875;48.202;16.334;2023-03-03T04:37:41;19.38;;;14.88;;
40154;SDS011;25875;48.202;16.334;2023-03-03T04:40:08;19.35;;;13.30;;
40154;SDS011;25875;48.202;16.334;2023-03-03T04:42:36;20.77;;;14.18;;
40154;SDS011;25875;48.202;16.334;2023-03-03T04:45:05;15.40;;;13.35;;
40154;SDS011;25875;48.202;16.334;2023-03-03T04:47:32;21.85;;;15.38;;
40154;SDS011;25875;48.202;16.334;2023-03-03T04:49:59;19.70;;;14.10;;
40154;SDS011;25875;48.202;16.334;2023-03-03T04:52:26;19.67;;;14.30;;
40154;SDS011;25875;48.202;16.334;2023-03-03T04:54:53;19.25;;;14.55;;
40154;SDS011;25875;48.202;16.334;2023-03-03T04:57:19;21.20;;;14.90;;
40154;SDS011;25875;48.202;16.334;2023-03-03T04:59:46;19.23;;;13.98;;
40154;SDS011;25875;48.202;16.334;2023-03-03T05:02:15;19.35;;;15.38;;
40154;SDS011;25875;48.202;16.334;2023-03-03T05:04:42;18.00;;;14.27;;
40154;SDS011;25875;48.202;16.334;2023-03-03T05:07:09;18.63;;;14.00;;
40154;SDS011;25875;48.202;16.334;2023-03-03T05:09:35;18.65;;;14.15;;
40154;SDS011;25875;48.202;16.334;2023-03-03T05:12:03;23.30;;;13.20;;
40154;SDS011;25875;48.202;16.334;2023-03-03T05:14:30;20.17;;;14.15;;
40154;SDS011;25875;48.202;16.334;2023-03-03T05:16:57;23.33;;;15.70;;
40154;SDS011;25875;48.202;16.334;2023-03-03T05:19:26;23.77;;;15.45;;
40154;SDS011;25875;48.202;16.334;2023-03-03T05:21:53;23.30;;;17.13;;
40154;SDS011;25875;48.202;16.334;2023-03-03T05:24:21;28.15;;;18.90;;
40154;SDS011;25875;48.202;16.334;2023-03-03T05:26:48;26.92;;;18.70;;
40154;SDS011;25875;48.202;16.334;2023-03-03T05:29:15;30.25;;;19.95;;
40154;SDS011;25875;48.202;16.334;2023-03-03T05:31:42;30.80;;;20.05;;
40154;SDS011;25875;48.202;16.334;2023-03-03T05:34:09;31.35;;;21.48;;
40154;SDS011;25875;48.202;16.334;2023-03-03T05:36:37;29.88;;;21.27;;
40154;SDS011;25875;48.202;16.334;2023-03-03T05:39:04;38.42;;;25.17;;
40154;SDS011;25875;48.202;16.334;2023-03-03T05:41:31;31.90;;;22.40;;
40154;SDS011;25875;48.202;16.334;2023-03-03T05:44:01;30.90;;;22.77;;
40154;SDS011;25875;48.202;16.334;2023-03-03T05:46:28;36.88;;;24.00;;
40154;SDS011;25875;48.202;16.334;2023-03-03T05:48:54;40.50;;;26.23;;
40154;SDS011;25875;48.202;16.334;2023-03-03T05:51:21;36.67;;;24.80;;
40154;SDS011;25875;48.202;16.334;2023-03-03T05:53:49;38.60;;;27.10;;
40154;SDS011;25875;48.202;16.334;2023-03-03T05:56:16;37.33;;;27.92;;
40154;SDS011;25875;48.202;16.334;2023-03-03T05:58:43;36.45;;;27.02;;
40154;SDS011;25875;48.202;16.334;2023-03-03T06:01:10;36.35;;;26.98;;
40154;SDS011;25875;48.202;16.334;2023-03-03T06:03:37;41.85;;;29.30;;
40154;SDS011;25875;48.202;16.334;2023-03-03T06:06:04;37.45;;;25.85;;
40154;SDS011;25875;48.202;16.334;2023-03-03T06:08:33;39.13;;;26.67;;
40154;SDS011;25875;48.202;16.334;2023-03-03T06:11:01;39.75;;;25.73;;
40154;SDS011;25875;48.202;16.334;2023-03-03T06:13:28;43.50;;;29.65;;
40154;SDS011;25875;48.202;16.334;2023-03-03T06:15:55;44.10;;;30.05;;
40154;SDS011;25875;48.202;16.334;2023-03-03T06:18:22;41.65;;;29.58;;
40154;SDS011;25875;48.202;16.334;2023-03-03T06:20:50;40.70;;;28.90;;
40154;SDS011;25875;48.202;16.334;2023-03-03T06:23:17;40.63;;;28.10;;
40154;SDS011;25875;48.202;16.334;2023-03-03T06:25:44;42.38;;;31.27;;
40154;SDS011;25875;48.202;16.334;2023-03-03T06:28:13;41.63;;;29.70;;
40154;SDS011;25875;48.202;16.334;2023-03-03T06:30:40;42.13;;;29.77;;
40154;SDS011;25875;48.202;16.334;2023-03-03T06:33:06;43.88;;;31.30;;
40154;SDS011;25875;48.202;16.334;2023-03-03T06:35:34;44.97;;;32.42;;
40154;SDS011;25875;48.202;16.334;2023-03-03T06:38:00;45.35;;;31.15;;
40154;SDS011;25875;48.202;16.334;2023-03-03T06:40:27;45.03;;;32.25;;
40154;SDS011;25875;48.202;16.334;2023-03-03T06:42:54;43.70;;;30.80;;
40154;SDS011;25875;48.202;16.334;2023-03-03T06:45:22;45.75;;;33.05;;
40154;SDS011;25875;48.202;16.334;2023-03-03T06:47:49;48.65;;;34.60;;
40154;SDS011;25875;48.202;16.334;2023-03-03T06:50:16;45.92;;;33.40;;
40154;SDS011;25875;48.202;16.334;2023-03-03T06:52:45;52.63;;;36.92;;
40154;SDS011;25875;48.202;16.334;2023-03-03T06:55:13;46.40;;;31.48;;
40154;SDS011;25875;48.202;16.334;2023-03-03T06:57:44;51.40;;;35.90;;
40154;SDS011;25875;48.202;16.334;2023-03-03T07:00:13;46.50;;;33.67;;
40154;SDS011;25875;48.202;16.334;2023-03-03T07:02:43;49.75;;;33.95;;
40154;SDS011;25875;48.202;16.334;2023-03-03T07:05:11;48.10;;;34.05;;
40154;SDS011;25875;48.202;16.334;2023-03-03T07:07:40;46.67;;;33.72;;
40154;SDS011;25875;48.202;16.334;2023-03-03T07:10:21;46.15;;;32.45;;
40154;SDS011;25875;48.202;16.334;2023-03-03T07:12:50;44.55;;;31.90;;
40154;SDS011;25875;48.202;16.334;2023-03-03T07:15:18;47.58;;;33.08;;
40154;SDS011;25875;48.202;16.334;2023-03-03T07:17:50;48.63;;;36.05;;
40154;SDS011;25875;48.202;16.334;2023-03-03T07:20:23;45.03;;;32.15;;
40154;SDS011;25875;48.202;16.334;2023-03-03T07:22:53;47.33;;;34.53;;
40154;SDS011;25875;48.202;16.334;2023-03-03T07:25:23;54.15;;;34.50;;
40154;SDS011;25875;48.202;16.334;2023-03-03T07:27:57;49.90;;;32.72;;
40154;SDS011;25875;48.202;16.334;2023-03-03T07:30:27;47.42;;;33.92;;
40154;SDS011;25875;48.202;16.334;2023-03-03T07:32:56;46.42;;;33.85;;
40154;SDS011;25875;48.202;16.334;2023-03-03T07:35:34;43.22;;;32.17;;
40154;SDS011;25875;48.202;16.334;2023-03-03T07:38:10;46.65;;;34.10;;
40154;SDS011;25875;48.202;16.334;2023-03-03T07:40:44;45.75;;;33.30;;
40154;SDS011;25875;48.202;16.334;2023-03-03T07:43:32;46.92;;;34.85;;
40154;SDS011;25875;48.202;16.334;2023-03-03T07:46:02;47.53;;;33.10;;
40154;SDS011;25875;48.202;16.334;2023-03-03T07:48:48;45.60;;;32.65;;
40154;SDS011;25875;48.202;16.334;2023-03-03T07:51:18;48.00;;;34.28;;
40154;SDS011;25875;48.202;16.334;2023-03-03T07:53:49;54.17;;;33.95;;
40154;SDS011;25875;48.202;16.334;2023-03-03T07:56:20;44.92;;;32.83;;
40154;SDS011;25875;48.202;16.334;2023-03-03T07:58:54;48.70;;;33.72;;
40154;SDS011;25875;48.202;16.334;2023-03-03T08:01:29;47.83;;;35.72;;
40154;SDS011;25875;48.202;16.334;2023-03-03T08:04:09;45.72;;;35.75;;
40154;SDS011;25875;48.202;16.334;2023-03-03T08:06:45;45.08;;;33.38;;
40154;SDS011;25875;48.202;16.334;2023-03-03T08:15:19;41.95;;;32.92;;
40154;SDS011;25875;48.202;16.334;2023-03-03T08:17:48;42.90;;;31.60;;
40154;SDS011;25875;48.202;16.334;2023-03-03T08:23:08;40.38;;;30.52;;
40154;SDS011;25875;48.202;16.334;2023-03-03T08:25:36;36.15;;;29.58;;
40154;SDS011;25875;48.202;16.334;2023-03-03T08:28:03;39.67;;;31.20;;
40154;SDS011;25875;48.202;16.334;2023-03-03T08:30:30;41.97;;;31.05;;
40154;SDS011;25875;48.202;16.334;2023-03-03T08:32:57;35.53;;;28.35;;
40154;SDS011;25875;48.202;16.334;2023-03-03T08:35:25;37.75;;;30.60;;
40154;SDS011;25875;48.202;16.334;2023-03-03T08:37:53;35.72;;;28.38;;
40154;SDS011;25875;48.202;16.334;2023-03-03T08:40:20;41.67;;;31.15;;
40154;SDS011;25875;48.202;16.334;2023-03-03T08:42:47;36.17;;;29.83;;
40154;SDS011;25875;48.202;16.334;2023-03-03T08:45:14;37.03;;;29.42;;
40154;SDS011;25875;48.202;16.334;2023-03-03T08:47:41;37.15;;;29.73;;
40154;SDS011;25875;48.202;16.334;2023-03-03T08:50:09;35.20;;;28.33;;
40154;SDS011;25875;48.202;16.334;2023-03-03T08:52:36;38.55;;;28.83;;
40154;SDS011;25875;48.202;16.334;2023-03-03T08:55:05;36.63;;;28.85;;
40154;SDS011;25875;48.202;16.334;2023-03-03T08:57:33;39.13;;;31.42;;
40154;SDS011;25875;48.202;16.334;2023-03-03T09:00:00;36.70;;;28.88;;
40154;SDS011;25875;48.202;16.334;2023-03-03T09:02:28;38.67;;;29.35;;
40154;SDS011;25875;48.202;16.334;2023-03-03T09:04:55;39.20;;;30.30;;
40154;SDS011;25875;48.202;16.334;2023-03-03T09:07:22;32.88;;;26.92;;
40154;SDS011;25875;48.202;16.334;2023-03-03T09:09:49;33.83;;;28.02;;
40154;SDS011;25875;48.202;16.334;2023-03-03T09:12:18;37.00;;;30.05;;
40154;SDS011;25875;48.202;16.334;2023-03-03T09:14:48;37.03;;;29.05;;
40154;SDS011;25875;48.202;16.334;2023-03-03T09:17:21;35.50;;;27.42;;
40154;SDS011;25875;48.202;16.334;2023-03-03T09:22:21;33.35;;;26.60;;
40154;SDS011;25875;48.202;16.334;2023-03-03T09:24:51;33.13;;;26.35;;
40154;SDS011;25875;48.202;16.334;2023-03-03T09:27:24;38.30;;;28.27;;
40154;SDS011;25875;48.202;16.334;2023-03-03T09:29:53;38.55;;;29.13;;
40154;SDS011;25875;48.202;16.334;2023-03-03T09:32:23;37.97;;;28.85;;
40154;SDS011;25875;48.202;16.334;2023-03-03T09:34:56;32.05;;;26.55;;
40154;SDS011;25875;48.202;16.334;2023-03-03T09:37:26;32.03;;;27.25;;
40154;SDS011;25875;48.202;16.334;2023-03-03T09:39:57;36.85;;;27.85;;
40154;SDS011;25875;48.202;16.334;2023-03-03T09:48:28;36.85;;;29.02;;
40154;SDS011;25875;48.202;16.334;2023-03-03T09:51:10;37.95;;;28.80;;
40154;SDS011;25875;48.202;16.334;2023-03-03T09:53:52;35.95;;;27.65;;
40154;SDS011;25875;48.202;16.334;2023-03-03T09:56:28;33.28;;;26.50;;
40154;SDS011;25875;48.202;16.334;2023-03-03T09:59:11;34.58;;;27.15;;
40154;SDS011;25875;48.202;16.334;2023-03-03T10:01:54;33.53;;;26.63;;
40154;SDS011;25875;48.202;16.334;2023-03-03T10:04:38;35.25;;;26.30;;
40154;SDS011;25875;48.202;16.334;2023-03-03T10:07:33;30.02;;;25.73;;
40154;SDS011;25875;48.202;16.334;2023-03-03T10:10:10;32.17;;;27.48;;
40154;SDS011;25875;48.202;16.334;2023-03-03T10:12:47;35.17;;;28.00;;
40154;SDS011;25875;48.202;16.334;2023-03-03T10:15:29;30.73;;;26.30;;
40154;SDS011;25875;48.202;16.334;2023-03-03T10:18:07;36.25;;;28.10;;
40154;SDS011;25875;48.202;16.334;2023-03-03T10:20:48;34.53;;;27.73;;
40154;SDS011;25875;48.202;16.334;2023-03-03T10:23:28;31.92;;;27.30;;
40154;SDS011;25875;48.202;16.334;2023-03-03T10:26:13;31.98;;;26.92;;
40154;SDS011;25875;48.202;16.334;2023-03-03T10:28:53;33.70;;;27.20;;
40154;SDS011;25875;48.202;16.334;2023-03-03T10:31:32;33.25;;;25.75;;
40154;SDS011;25875;48.202;16.334;2023-03-03T10:34:14;37.35;;;29.33;;
40154;SDS011;25875;48.202;16.334;2023-03-03T10:36:55;32.97;;;27.23;;
40154;SDS011;25875;48.202;16.334;2023-03-03T10:39:33;35.20;;;27.73;;
40154;SDS011;25875;48.202;16.334;2023-03-03T10:42:16;35.63;;;26.17;;
40154;SDS011;25875;48.202;16.334;2023-03-03T10:45:10;32.58;;;25.88;;
40154;SDS011;25875;48.202;16.334;2023-03-03T10:47:57;32.13;;;24.58;;
40154;SDS011;25875;48.202;16.334;2023-03-03T10:50:41;30.42;;;24.77;;
40154;SDS011;25875;48.202;16.334;2023-03-03T10:53:20;31.10;;;25.60;;
40154;SDS011;25875;48.202;16.334;2023-03-03T10:55:55;31.15;;;23.52;;
40154;SDS011;25875;48.202;16.334;2023-03-03T10:58:39;27.92;;;23.88;;
40154;SDS011;25875;48.202;16.334;2023-03-03T11:01:14;29.05;;;23.38;;
40154;SDS011;25875;48.202;16.334;2023-03-03T11:06:52;29.58;;;24.27;;
40154;SDS011;25875;48.202;16.334;2023-03-03T11:09:30;29.63;;;24.13;;
40154;SDS011;25875;48.202;16.334;2023-03-03T11:12:07;28.52;;;24.33;;
40154;SDS011;25875;48.202;16.334;2023-03-03T11:14:42;27.50;;;22.70;;
40154;SDS011;25875;48.202;16.334;2023-03-03T11:17:15;29.90;;;23.67;;
40154;SDS011;25875;48.202;16.334;2023-03-03T11:19:54;28.80;;;23.52;;
40154;SDS011;25875;48.202;16.334;2023-03-03T11:22:37;29.70;;;23.63;;
40154;SDS011;25875;48.202;16.334;2023-03-03T11:25:14;27.17;;;22.95;;
40154;SDS011;25875;48.202;16.334;2023-03-03T11:27:57;25.05;;;21.30;;
40154;SDS011;25875;48.202;16.334;2023-03-03T11:30:34;28.38;;;22.70;;
40154;SDS011;25875;48.202;16.334;2023-03-03T11:33:17;24.95;;;20.88;;
40154;SDS011;25875;48.202;16.334;2023-03-03T11:35:49;26.80;;;21.25;;
40154;SDS011;25875;48.202;16.334;2023-03-03T11:38:33;28.27;;;22.13;;
40154;SDS011;25875;48.202;16.334;2023-03-03T11:43:41;27.55;;;21.02;;
40154;SDS011;25875;48.202;16.334;2023-03-03T11:46:12;24.10;;;21.45;;
40154;SDS011;25875;48.202;16.334;2023-03-03T11:48:44;25.30;;;20.88;;
40154;SDS011;25875;48.202;16.334;2023-03-03T11:51:21;26.25;;;20.95;;
40154;SDS011;25875;48.202;16.334;2023-03-03T11:54:00;23.55;;;19.48;;
40154;SDS011;25875;48.202;16.334;2023-03-03T11:56:33;26.88;;;21.85;;
40154;SDS011;25875;48.202;16.334;2023-03-03T11:59:19;24.77;;;21.13;;
40154;SDS011;25875;48.202;16.334;2023-03-03T12:02:14;27.50;;;21.23;;
40154;SDS011;25875;48.202;16.334;2023-03-03T12:04:53;26.52;;;21.10;;
40154;SDS011;25875;48.202;16.334;2023-03-03T12:07:25;30.50;;;20.58;;
40154;SDS011;25875;48.202;16.334;2023-03-03T12:10:02;25.75;;;21.98;;
40154;SDS011;25875;48.202;16.334;2023-03-03T12:12:41;26.23;;;22.10;;
40154;SDS011;25875;48.202;16.334;2023-03-03T12:15:16;27.42;;;22.98;;
40154;SDS011;25875;48.202;16.334;2023-03-03T12:17:59;25.50;;;21.77;;
40154;SDS011;25875;48.202;16.334;2023-03-03T12:20:47;28.15;;;22.13;;
40154;SDS011;25875;48.202;16.334;2023-03-03T12:23:34;31.58;;;22.95;;
40154;SDS011;25875;48.202;16.334;2023-03-03T12:26:11;27.52;;;22.58;;
40154;SDS011;25875;48.202;16.334;2023-03-03T12:28:44;24.38;;;20.23;;
40154;SDS011;25875;48.202;16.334;2023-03-03T12:34:13;26.33;;;21.63;;
40154;SDS011;25875;48.202;16.334;2023-03-03T12:36:54;24.40;;;19.75;;
40154;SDS011;25875;48.202;16.334;2023-03-03T12:42:24;27.67;;;22.58;;
40154;SDS011;25875;48.202;16.334;2023-03-03T12:45:06;26.67;;;21.27;;
40154;SDS011;25875;48.202;16.334;2023-03-03T12:47:45;24.42;;;20.70;;
40154;SDS011;25875;48.202;16.334;2023-03-03T12:50:22;25.50;;;21.38;;
40154;SDS011;25875;48.202;16.334;2023-03-03T12:52:57;25.67;;;20.73;;
40154;SDS011;25875;48.202;16.334;2023-03-03T12:55:34;25.08;;;21.10;;
40154;SDS011;25875;48.202;16.334;2023-03-03T12:58:11;28.02;;;22.52;;
40154;SDS011;25875;48.202;16.334;2023-03-03T13:00:52;26.65;;;21.20;;
40154;SDS011;25875;48.202;16.334;2023-03-03T13:03:34;24.00;;;21.10;;
40154;SDS011;25875;48.202;16.334;2023-03-03T13:06:10;28.95;;;21.40;;
40154;SDS011;25875;48.202;16.334;2023-03-03T13:08:49;23.23;;;20.13;;
40154;SDS011;25875;48.202;16.334;2023-03-03T13:11:29;26.58;;;22.08;;
40154;SDS011;25875;48.202;16.334;2023-03-03T13:14:16;23.98;;;19.63;;
40154;SDS011;25875;48.202;16.334;2023-03-03T13:17:00;23.63;;;20.42;;
40154;SDS011;25875;48.202;16.334;2023-03-03T13:19:33;25.08;;;20.90;;
40154;SDS011;25875;48.202;16.334;2023-03-03T13:22:07;27.77;;;21.75;;
40154;SDS011;25875;48.202;16.334;2023-03-03T13:24:41;26.42;;;21.27;;
40154;SDS011;25875;48.202;16.334;2023-03-03T13:27:21;26.20;;;22.95;;
40154;SDS011;25875;48.202;16.334;2023-03-03T13:29:55;26.30;;;20.88;;
40154;SDS011;25875;48.202;16.334;2023-03-03T13:32:27;25.40;;;20.95;;
40154;SDS011;25875;48.202;16.334;2023-03-03T13:35:00;26.03;;;20.67;;
40154;SDS011;25875;48.202;16.334;2023-03-03T13:37:34;27.30;;;21.80;;
40154;SDS011;25875;48.202;16.334;2023-03-03T13:40:12;26.47;;;20.87;;
40154;SDS011;25875;48.202;16.334;2023-03-03T13:42:45;23.83;;;20.13;;
40154;SDS011;25875;48.202;16.334;2023-03-03T13:45:17;25.87;;;19.93;;
40154;SDS011;25875;48.202;16.334;2023-03-03T13:47:52;25.83;;;20.48;;
40154;SDS011;25875;48.202;16.334;2023-03-03T13:50:28;26.20;;;19.98;;
40154;SDS011;25875;48.202;16.334;2023-03-03T13:53:18;27.27;;;21.42;;
40154;SDS011;25875;48.202;16.334;2023-03-03T13:56:01;26.38;;;21.33;;
40154;SDS011;25875;48.202;16.334;2023-03-03T13:58:38;25.20;;;20.60;;
40154;SDS011;25875;48.202;16.334;2023-03-03T14:01:13;25.02;;;20.27;;
40154;SDS011;25875;48.202;16.334;2023-03-03T14:03:51;28.45;;;22.42;;
40154;SDS011;25875;48.202;16.334;2023-03-03T14:06:26;26.75;;;21.50;;
40154;SDS011;25875;48.202;16.334;2023-03-03T14:11:47;26.45;;;20.55;;
40154;SDS011;25875;48.202;16.334;2023-03-03T14:14:25;25.73;;;20.88;;
40154;SDS011;25875;48.202;16.334;2023-03-03T14:17:01;26.55;;;20.17;;
40154;SDS011;25875;48.202;16.334;2023-03-03T14:19:33;26.05;;;20.15;;
40154;SDS011;25875;48.202;16.334;2023-03-03T14:22:08;22.35;;;18.80;;
40154;SDS011;25875;48.202;16.334;2023-03-03T14:24:55;25.20;;;19.70;;
40154;SDS011;25875;48.202;16.334;2023-03-03T14:27:32;22.30;;;18.13;;
40154;SDS011;25875;48.202;16.334;2023-03-03T14:30:25;30.45;;;22.80;;
40154;SDS011;25875;48.202;16.334;2023-03-03T14:32:59;21.73;;;18.83;;
40154;SDS011;25875;48.202;16.334;2023-03-03T14:35:29;23.92;;;20.08;;
40154;SDS011;25875;48.202;16.334;2023-03-03T14:38:01;23.52;;;17.48;;
40154;SDS011;25875;48.202;16.334;2023-03-03T14:40:31;24.10;;;18.85;;
40154;SDS011;25875;48.202;16.334;2023-03-03T14:43:00;24.20;;;19.23;;
40154;SDS011;25875;48.202;16.334;2023-03-03T14:45:34;23.45;;;19.70;;
40154;SDS011;25875;48.202;16.334;2023-03-03T14:48:09;24.75;;;20.42;;
40154;SDS011;25875;48.202;16.334;2023-03-03T14:50:41;22.30;;;18.83;;
40154;SDS011;25875;48.202;16.334;2023-03-03T14:53:13;23.38;;;19.48;;
40154;SDS011;25875;48.202;16.334;2023-03-03T14:55:41;23.00;;;20.02;;
40154;SDS011;25875;48.202;16.334;2023-03-03T14:58:24;20.42;;;18.23;;
40154;SDS011;25875;48.202;16.334;2023-03-03T15:01:14;24.27;;;19.52;;
40154;SDS011;25875;48.202;16.334;2023-03-03T15:03:47;20.30;;;17.33;;
40154;SDS011;25875;48.202;16.334;2023-03-03T15:06:30;19.30;;;16.65;;
40154;SDS011;25875;48.202;16.334;2023-03-03T15:12:16;21.58;;;17.15;;
40154;SDS011;25875;48.202;16.334;2023-03-03T15:14:47;18.65;;;16.35;;